Time;durP1;ratioP1;P1;durP2;ratioP2;P2;SDS_P1;SDS_P2;PMS_P1;PMS_P2;Temp;Humidity;BMP_temperature;BMP_pressure;BME280_temperature;BME280_humidity;BME280_pressure;Samples;Min_cycle;Max_cycle;Signal;HPM_P1;HPM_P2
2021/08/01 00:02:02;;;;;;;18.42;15.23;;;;;;;;;;5019007;28;20209;-69
2021/08/01 00:04:27;;;;;;;25.48;15.85;;;;;;;;;;5007598;28;20652;-69
2021/08/01 00:06:53;;;;;;;26.10;16.77;;;;;;;;;;5018316;28;20185;-69
2021/08/01 00:09:18;;;;;;;21.95;16.60;;;;;;;;;;5004371;28;20218;-69
2021/08/01 00:11:43;;;;;;;17.65;14.32;;;;;;;;;;5017808;28;20329;-69
2021/08/01 00:14:09;;;;;;;20.42;15.27;;;;;;;;;;5009170;28;20275;-69
2021/08/01 00:16:34;;;;;;;24.08;16.13;;;;;;;;;;5019492;28;20190;-69
2021/08/01 00:18:59;;;;;;;24.10;17.42;;;;;;;;;;5018040;28;20185;-69
2021/08/01 00:21:25;;;;;;;24.00;16.52;;;;;;;;;;5011285;28;20264;-69
2021/08/01 00:23:50;;;;;;;23.00;16.58;;;;;;;;;;5018268;28;20205;-69
2021/08/01 00:26:16;;;;;;;22.58;16.77;;;;;;;;;;5009529;28;20194;-68
2021/08/01 00:28:41;;;;;;;20.10;15.18;;;;;;;;;;5018843;28;20652;-69
2021/08/01 00:31:07;;;;;;;23.50;17.02;;;;;;;;;;5010418;28;20247;-69
2021/08/01 00:33:32;;;;;;;23.45;14.88;;;;;;;;;;5018198;28;20205;-69
2021/08/01 00:35:57;;;;;;;20.85;14.82;;;;;;;;;;5010644;28;20288;-69
2021/08/01 00:38:23;;;;;;;23.63;15.80;;;;;;;;;;5014325;28;20202;-69
2021/08/01 00:40:48;;;;;;;24.35;17.15;;;;;;;;;;5009075;28;20195;-68
2021/08/01 00:43:14;;;;;;;24.90;17.25;;;;;;;;;;5018180;28;20182;-69
2021/08/01 00:45:39;;;;;;;24.38;17.83;;;;;;;;;;5011391;28;20276;-69
2021/08/01 00:48:12;;;;;;;24.60;16.55;;;;;;;;;;5016042;28;20198;-70
2021/08/01 00:50:38;;;;;;;22.75;16.20;;;;;;;;;;5018741;28;20535;-69
2021/08/01 00:53:05;;;;;;;24.48;16.05;;;;;;;;;;5006137;28;20279;-68
2021/08/01 00:55:31;;;;;;;22.73;16.45;;;;;;;;;;5018256;28;20189;-69
2021/08/01 00:57:56;;;;;;;24.13;16.15;;;;;;;;;;5007671;28;20739;-68
2021/08/01 01:03:15;;;;;;;24.55;16.10;;;;;;;;;;5009499;28;20194;-68
2021/08/01 01:05:46;;;;;;;21.80;16.50;;;;;;;;;;5019555;28;20197;-68
2021/08/01 01:08:24;;;;;;;20.75;14.95;;;;;;;;;;5010286;28;20291;-68
2021/08/01 01:10:52;;;;;;;21.55;15.50;;;;;;;;;;5017554;28;20182;-68
2021/08/01 01:13:26;;;;;;;23.63;15.38;;;;;;;;;;5008842;28;20213;-67
2021/08/01 01:15:55;;;;;;;17.52;13.77;;;;;;;;;;5018290;28;20525;-68
2021/08/01 01:18:24;;;;;;;22.33;15.15;;;;;;;;;;5010157;28;20313;-67
2021/08/01 01:21:24;;;;;;;20.20;15.50;;;;;;;;;;5017205;28;20190;-68
2021/08/01 01:24:03;;;;;;;20.88;14.68;;;;;;;;;;5010116;28;20186;-68
2021/08/01 01:26:33;;;;;;;26.60;14.18;;;;;;;;;;5017973;28;20281;-68
2021/08/01 01:29:27;;;;;;;20.63;13.80;;;;;;;;;;5010642;28;20190;-68
2021/08/01 01:32:00;;;;;;;19.40;14.75;;;;;;;;;;5012968;28;20221;-68
2021/08/01 01:34:37;;;;;;;20.58;15.50;;;;;;;;;;5009286;28;20218;-68
2021/08/01 01:37:05;;;;;;;23.25;14.80;;;;;;;;;;5017239;28;20192;-68
2021/08/01 01:39:34;;;;;;;16.67;13.52;;;;;;;;;;5010450;28;20197;-68
2021/08/01 01:42:01;;;;;;;25.70;15.80;;;;;;;;;;5015703;28;20269;-68
2021/08/01 01:44:29;;;;;;;17.77;12.63;;;;;;;;;;5010893;28;20566;-68
2021/08/01 01:46:55;;;;;;;21.98;14.10;;;;;;;;;;5015849;28;20205;-68
2021/08/01 01:49:22;;;;;;;21.13;15.15;;;;;;;;;;5007537;28;20190;-68
2021/08/01 01:51:47;;;;;;;19.80;14.00;;;;;;;;;;5016901;28;20551;-68
2021/08/01 01:54:13;;;;;;;29.40;15.57;;;;;;;;;;5016559;28;20198;-68
2021/08/01 01:56:40;;;;;;;21.73;15.30;;;;;;;;;;5009142;28;20198;-68
2021/08/01 01:59:05;;;;;;;21.85;15.50;;;;;;;;;;5015587;28;20228;-69
2021/08/01 02:01:32;;;;;;;22.67;14.63;;;;;;;;;;5008417;28;20194;-69
2021/08/01 02:03:57;;;;;;;24.70;15.75;;;;;;;;;;5016013;28;20694;-69
2021/08/01 02:06:23;;;;;;;21.77;16.33;;;;;;;;;;5006924;28;20200;-69
2021/08/01 02:08:57;;;;;;;20.90;15.80;;;;;;;;;;5018024;28;20190;-68
2021/08/01 02:11:27;;;;;;;22.67;15.35;;;;;;;;;;5007405;28;20192;-69
2021/08/01 02:14:02;;;;;;;26.77;16.95;;;;;;;;;;5015783;28;20197;-69
2021/08/01 02:16:33;;;;;;;30.75;17.15;;;;;;;;;;5006007;28;20189;-69
2021/08/01 02:19:04;;;;;;;22.33;16.05;;;;;;;;;;5016855;28;20189;-69
2021/08/01 02:21:29;;;;;;;21.48;15.45;;;;;;;;;;5004485;28;20205;-69
2021/08/01 02:23:57;;;;;;;26.90;17.30;;;;;;;;;;5015820;28;20186;-69
2021/08/01 02:26:23;;;;;;;26.60;16.40;;;;;;;;;;5006451;28;20194;-69
2021/08/01 02:28:51;;;;;;;23.42;17.02;;;;;;;;;;5015954;28;20313;-69
2021/08/01 02:31:17;;;;;;;26.52;17.48;;;;;;;;;;5010491;28;20195;-69
2021/08/01 02:33:43;;;;;;;23.88;17.63;;;;;;;;;;5010815;28;20206;-69
2021/08/01 02:36:10;;;;;;;28.92;17.77;;;;;;;;;;5014329;28;20190;-68
2021/08/01 02:38:36;;;;;;;27.02;18.98;;;;;;;;;;5010821;28;20653;-68
2021/08/01 02:41:14;;;;;;;26.88;18.35;;;;;;;;;;5014009;28;20747;-68
2021/08/01 02:43:41;;;;;;;31.40;19.15;;;;;;;;;;5006597;28;20190;-69
2021/08/01 02:46:08;;;;;;;31.88;19.98;;;;;;;;;;5013287;28;20236;-69
2021/08/01 02:48:34;;;;;;;26.70;19.25;;;;;;;;;;5010221;28;20190;-69
2021/08/01 02:51:03;;;;;;;31.75;19.85;;;;;;;;;;5014632;28;20204;-68
2021/08/01 02:53:32;;;;;;;35.05;22.13;;;;;;;;;;5009178;28;20206;-68
2021/08/01 02:56:00;;;;;;;29.92;19.10;;;;;;;;;;5016335;28;20668;-68
2021/08/01 02:58:27;;;;;;;30.73;20.60;;;;;;;;;;5008454;28;20229;-68
2021/08/01 03:00:53;;;;;;;32.80;22.65;;;;;;;;;;5014521;28;20247;-68
2021/08/01 03:03:20;;;;;;;32.05;21.08;;;;;;;;;;5009126;28;20256;-68
2021/08/01 03:05:46;;;;;;;29.08;21.80;;;;;;;;;;5015347;28;20197;-67
2021/08/01 03:08:14;;;;;;;31.63;20.33;;;;;;;;;;5013791;28;20186;-68
2021/08/01 03:10:47;;;;;;;30.50;21.73;;;;;;;;;;5008957;28;20194;-68
2021/08/01 03:13:13;;;;;;;30.23;18.52;;;;;;;;;;5014757;28;20362;-67
2021/08/01 03:15:39;;;;;;;28.15;19.33;;;;;;;;;;5008968;28;20622;-67
2021/08/01 03:18:04;;;;;;;27.42;20.13;;;;;;;;;;5020332;28;20484;-67
2021/08/01 03:20:30;;;;;;;31.05;20.33;;;;;;;;;;5009157;28;20182;-67
2021/08/01 03:22:55;;;;;;;27.92;20.20;;;;;;;;;;5020584;28;20235;-68
2021/08/01 03:25:21;;;;;;;37.53;24.02;;;;;;;;;;5010308;28;20551;-67
2021/08/01 03:27:46;;;;;;;32.30;21.92;;;;;;;;;;5019680;28;20595;-67
2021/08/01 03:30:11;;;;;;;37.88;24.38;;;;;;;;;;5010093;28;20229;-67
2021/08/01 03:32:37;;;;;;;39.55;22.85;;;;;;;;;;5018800;28;20220;-67
2021/08/01 03:35:02;;;;;;;34.58;23.63;;;;;;;;;;5007683;28;20688;-68
2021/08/01 03:37:28;;;;;;;36.75;22.45;;;;;;;;;;5016411;28;20730;-67
2021/08/01 03:39:54;;;;;;;28.85;19.60;;;;;;;;;;5015531;28;20534;-67
2021/08/01 03:42:19;;;;;;;36.40;24.25;;;;;;;;;;5006845;28;20329;-67
2021/08/01 03:44:45;;;;;;;35.53;23.20;;;;;;;;;;5016994;28;20194;-67
2021/08/01 03:47:10;;;;;;;38.05;26.67;;;;;;;;;;5006378;28;20184;-67
2021/08/01 03:49:36;;;;;;;36.97;25.50;;;;;;;;;;5016687;28;20708;-67
2021/08/01 03:52:01;;;;;;;48.08;28.38;;;;;;;;;;5007489;28;20200;-68
2021/08/01 03:54:26;;;;;;;41.95;25.05;;;;;;;;;;5016331;28;20301;-68
2021/08/01 03:56:52;;;;;;;47.65;28.52;;;;;;;;;;5007251;28;20308;-68
2021/08/01 03:59:17;;;;;;;46.67;29.83;;;;;;;;;;5016327;28;20260;-68
2021/08/01 04:01:42;;;;;;;42.47;25.95;;;;;;;;;;5006414;28;20279;-67
2021/08/01 04:04:08;;;;;;;43.75;26.85;;;;;;;;;;5010996;28;20285;-67
2021/08/01 04:06:34;;;;;;;47.92;28.67;;;;;;;;;;5006553;28;20201;-67
2021/08/01 04:09:00;;;;;;;53.00;28.33;;;;;;;;;;5019685;28;20204;-67
2021/08/01 04:11:25;;;;;;;48.10;29.08;;;;;;;;;;5016654;28;20194;-68
2021/08/01 04:13:51;;;;;;;48.47;28.65;;;;;;;;;;5011105;28;20347;-68
2021/08/01 04:16:16;;;;;;;45.08;26.27;;;;;;;;;;5019403;28;20650;-67
2021/08/01 04:18:41;;;;;;;48.20;28.77;;;;;;;;;;5012033;28;20190;-67
2021/08/01 04:21:11;;;;;;;49.40;28.70;;;;;;;;;;5019052;28;20190;-67
2021/08/01 04:23:37;;;;;;;47.10;26.60;;;;;;;;;;5012026;28;20217;-67
2021/08/01 04:26:04;;;;;;;44.42;27.00;;;;;;;;;;5018623;28;20193;-67
2021/08/01 04:28:30;;;;;;;49.47;27.77;;;;;;;;;;5011846;28;20196;-67
2021/08/01 04:30:56;;;;;;;39.55;26.45;;;;;;;;;;5016201;28;20273;-67
2021/08/01 04:33:21;;;;;;;50.33;28.38;;;;;;;;;;5009663;28;20260;-68
2021/08/01 04:35:46;;;;;;;43.65;28.40;;;;;;;;;;5019063;28;20698;-68
2021/08/01 04:38:12;;;;;;;44.75;27.23;;;;;;;;;;5010741;28;20641;-68
2021/08/01 04:40:37;;;;;;;42.83;26.98;;;;;;;;;;5015619;28;20248;-68
2021/08/01 04:43:03;;;;;;;46.30;28.38;;;;;;;;;;5018169;28;20178;-67
2021/08/01 04:45:28;;;;;;;48.33;27.90;;;;;;;;;;5007589;28;20709;-67
2021/08/01 04:47:53;;;;;;;46.03;26.73;;;;;;;;;;5020657;28;20186;-67
2021/08/01 04:50:19;;;;;;;44.63;27.23;;;;;;;;;;5007549;28;20653;-67
2021/08/01 04:52:44;;;;;;;39.72;25.58;;;;;;;;;;5019002;28;20214;-68
2021/08/01 04:55:10;;;;;;;44.65;27.02;;;;;;;;;;5007746;28;20182;-67
2021/08/01 04:57:35;;;;;;;50.75;27.75;;;;;;;;;;5017920;28;20293;-67
2021/08/01 05:00:01;;;;;;;45.85;27.27;;;;;;;;;;5007870;28;20219;-68
2021/08/01 05:02:26;;;;;;;36.58;24.67;;;;;;;;;;5015924;28;20177;-67
2021/08/01 05:04:52;;;;;;;44.05;27.00;;;;;;;;;;5009760;28;20205;-68
2021/08/01 05:07:17;;;;;;;45.13;28.02;;;;;;;;;;5017553;28;20182;-68
2021/08/01 05:09:42;;;;;;;41.78;27.17;;;;;;;;;;5010345;28;20213;-68
2021/08/01 05:12:08;;;;;;;49.15;28.33;;;;;;;;;;5016789;28;20197;-67
2021/08/01 05:14:33;;;;;;;33.25;24.10;;;;;;;;;;5014686;28;20572;-66
2021/08/01 05:16:58;;;;;;;37.58;26.88;;;;;;;;;;5010971;28;20194;-68
2021/08/01 05:19:24;;;;;;;42.15;27.10;;;;;;;;;;5013362;28;20384;-67
2021/08/01 05:21:49;;;;;;;40.55;27.70;;;;;;;;;;5006169;28;20190;-67
2021/08/01 05:24:14;;;;;;;41.92;28.05;;;;;;;;;;5016018;28;20240;-69
2021/08/01 05:26:40;;;;;;;42.08;28.50;;;;;;;;;;5009106;28;20277;-68
2021/08/01 05:29:08;;;;;;;40.70;27.45;;;;;;;;;;5015919;28;20193;-68
2021/08/01 05:31:33;;;;;;;44.70;30.60;;;;;;;;;;5009141;28;20194;-68
2021/08/01 05:33:58;;;;;;;36.97;26.27;;;;;;;;;;5017912;28;20260;-68
2021/08/01 05:36:24;;;;;;;44.60;28.38;;;;;;;;;;5007973;28;20568;-68
2021/08/01 05:38:49;;;;;;;38.45;28.13;;;;;;;;;;5016766;28;20194;-69
2021/08/01 05:41:18;;;;;;;42.40;29.73;;;;;;;;;;5012647;28;20200;-69
2021/08/01 05:43:43;;;;;;;42.33;28.92;;;;;;;;;;5003613;28;20194;-68
2021/08/01 05:46:10;;;;;;;40.55;26.98;;;;;;;;;;5012950;28;20193;-68
2021/08/01 05:48:36;;;;;;;35.33;25.90;;;;;;;;;;5005964;28;20219;-68
2021/08/01 05:51:07;;;;;;;42.53;28.25;;;;;;;;;;5012404;28;20197;-68
2021/08/01 05:53:33;;;;;;;37.88;27.75;;;;;;;;;;5007892;28;20226;-68
2021/08/01 05:56:05;;;;;;;38.85;27.20;;;;;;;;;;5014596;28;20181;-68
2021/08/01 05:58:30;;;;;;;35.35;25.33;;;;;;;;;;5006173;28;20223;-68
2021/08/01 06:00:55;;;;;;;36.83;26.23;;;;;;;;;;5015492;28;20472;-67
2021/08/01 06:03:21;;;;;;;35.40;25.83;;;;;;;;;;5002485;28;20194;-66
2021/08/01 06:05:46;;;;;;;41.38;27.25;;;;;;;;;;5013373;28;20626;-67
2021/08/01 06:08:11;;;;;;;35.30;25.75;;;;;;;;;;5004288;28;20186;-66
2021/08/01 06:10:37;;;;;;;34.97;26.58;;;;;;;;;;5010792;28;20194;-66
2021/08/01 06:13:02;;;;;;;30.17;25.08;;;;;;;;;;5013411;28;20267;-66
2021/08/01 06:15:27;;;;;;;35.15;25.38;;;;;;;;;;5002207;28;20218;-67
2021/08/01 06:17:53;;;;;;;31.88;25.88;;;;;;;;;;5012717;28;20192;-66
2021/08/01 06:20:18;;;;;;;41.22;26.85;;;;;;;;;;5003341;28;20198;-67
2021/08/01 06:22:43;;;;;;;34.28;23.98;;;;;;;;;;5012146;28;20184;-67
2021/08/01 06:25:09;;;;;;;33.35;22.42;;;;;;;;;;5002297;28;20740;-67
2021/08/01 06:27:34;;;;;;;32.00;24.30;;;;;;;;;;5015022;28;20216;-67
2021/08/01 06:29:59;;;;;;;36.60;25.20;;;;;;;;;;5003188;28;20201;-68
2021/08/01 06:32:25;;;;;;;31.83;24.02;;;;;;;;;;5014489;28;20186;-67
2021/08/01 06:34:50;;;;;;;31.92;25.02;;;;;;;;;;5003557;28;20192;-67
2021/08/01 06:37:16;;;;;;;32.45;24.38;;;;;;;;;;5010092;28;20181;-68
2021/08/01 06:39:44;;;;;;;26.20;21.60;;;;;;;;;;5005154;28;20193;-68
2021/08/01 06:42:09;;;;;;;36.63;23.13;;;;;;;;;;5013629;28;20197;-68
2021/08/01 06:44:35;;;;;;;31.70;23.55;;;;;;;;;;5011713;28;20194;-69
2021/08/01 06:47:00;;;;;;;34.03;22.80;;;;;;;;;;5003984;28;20285;-70
2021/08/01 06:49:26;;;;;;;33.72;23.83;;;;;;;;;;5010173;28;20194;-67
2021/08/01 06:51:51;;;;;;;26.67;20.90;;;;;;;;;;5005637;28;20197;-68
2021/08/01 06:54:16;;;;;;;31.80;24.85;;;;;;;;;;5010597;28;20233;-68
2021/08/01 06:56:41;;;;;;;33.00;24.90;;;;;;;;;;5002629;28;20561;-68
2021/08/01 06:59:07;;;;;;;29.27;23.40;;;;;;;;;;5010158;28;20820;-67
2021/08/01 07:01:32;;;;;;;31.70;24.80;;;;;;;;;;5002362;28;20197;-70
2021/08/01 07:03:57;;;;;;;28.17;22.60;;;;;;;;;;4319500;28;10000828;-68
2021/08/01 07:06:23;;;;;;;31.67;25.33;;;;;;;;;;5001385;28;20483;-69
2021/08/01 07:08:48;;;;;;;29.55;25.05;;;;;;;;;;5010360;28;20190;-68
2021/08/01 07:11:13;;;;;;;30.48;25.02;;;;;;;;;;5004329;28;20277;-69
2021/08/01 07:13:39;;;;;;;29.83;25.00;;;;;;;;;;5005795;28;20581;-68
2021/08/01 07:16:05;;;;;;;32.47;23.17;;;;;;;;;;5006142;28;20190;-67
2021/08/01 07:18:31;;;;;;;32.55;24.20;;;;;;;;;;5001754;28;21489;-67
2021/08/01 07:20:57;;;;;;;28.25;22.45;;;;;;;;;;5008790;28;20193;-67
2021/08/01 07:23:23;;;;;;;27.80;23.15;;;;;;;;;;5000456;28;20190;-67
2021/08/01 07:25:48;;;;;;;30.17;23.08;;;;;;;;;;5007651;28;20588;-68
2021/08/01 07:28:13;;;;;;;26.58;22.23;;;;;;;;;;4996973;28;20250;-68
2021/08/01 07:30:39;;;;;;;27.67;22.88;;;;;;;;;;5009507;28;20697;-68
2021/08/01 07:33:04;;;;;;;26.35;21.63;;;;;;;;;;4999636;28;20466;-68
2021/08/01 07:35:29;;;;;;;29.27;21.85;;;;;;;;;;5008440;28;20202;-67
2021/08/01 07:37:55;;;;;;;26.55;21.48;;;;;;;;;;5003401;28;20193;-69
2021/08/01 07:40:20;;;;;;;28.05;22.10;;;;;;;;;;5010767;28;20193;-68
2021/08/01 07:42:46;;;;;;;33.22;22.95;;;;;;;;;;5011899;28;20490;-68
2021/08/01 07:45:23;;;;;;;25.45;20.25;;;;;;;;;;5003843;28;20197;-68
2021/08/01 07:47:48;;;;;;;24.73;21.48;;;;;;;;;;5012148;28;20193;-68
2021/08/01 07:50:14;;;;;;;27.58;22.10;;;;;;;;;;5001936;28;20194;-68
2021/08/01 07:52:39;;;;;;;28.92;23.00;;;;;;;;;;5011814;28;20580;-68
2021/08/01 07:55:06;;;;;;;31.40;23.05;;;;;;;;;;5003577;28;20205;-68
2021/08/01 07:57:32;;;;;;;29.10;23.77;;;;;;;;;;5013499;28;20226;-68
2021/08/01 08:00:01;;;;;;;30.45;23.23;;;;;;;;;;5002981;28;20549;-67
2021/08/01 08:02:27;;;;;;;28.75;22.73;;;;;;;;;;5010207;28;20197;-68
2021/08/01 08:04:53;;;;;;;33.90;25.42;;;;;;;;;;5004620;28;21311;-67
2021/08/01 08:07:19;;;;;;;30.20;22.77;;;;;;;;;;5014993;28;20509;-67
2021/08/01 08:09:44;;;;;;;31.45;23.70;;;;;;;;;;5008286;28;20193;-68
2021/08/01 08:12:10;;;;;;;27.58;23.30;;;;;;;;;;5021227;28;20194;-69
2021/08/01 08:14:35;;;;;;;29.98;23.70;;;;;;;;;;5014945;28;20636;-69
2021/08/01 08:17:01;;;;;;;28.77;23.60;;;;;;;;;;5016165;28;20194;-68
2021/08/01 08:19:27;;;;;;;32.05;25.02;;;;;;;;;;5017073;28;20653;-68
2021/08/01 08:21:54;;;;;;;29.50;23.60;;;;;;;;;;5013511;28;20200;-70
2021/08/01 08:24:19;;;;;;;29.60;24.02;;;;;;;;;;5016141;28;20201;-68
2021/08/01 08:26:45;;;;;;;30.13;24.13;;;;;;;;;;5010897;28;20206;-69
2021/08/01 08:29:10;;;;;;;28.55;23.45;;;;;;;;;;5015504;28;20654;-69
2021/08/01 08:31:35;;;;;;;26.60;22.48;;;;;;;;;;5013090;28;20190;-68
2021/08/01 08:34:01;;;;;;;27.27;21.75;;;;;;;;;;5017366;28;20214;-67
2021/08/01 08:36:26;;;;;;;28.75;20.70;;;;;;;;;;5007630;28;20198;-68
2021/08/01 08:38:51;;;;;;;23.65;19.98;;;;;;;;;;5017620;28;20243;-68
2021/08/01 08:41:17;;;;;;;25.67;19.25;;;;;;;;;;4659798;28;10000539;-68
2021/08/01 08:43:43;;;;;;;20.95;18.70;;;;;;;;;;5012345;28;20439;-68
2021/08/01 08:46:10;;;;;;;22.85;17.98;;;;;;;;;;5011859;28;20197;-69
2021/08/01 08:48:36;;;;;;;24.23;17.95;;;;;;;;;;5003603;28;20190;-68
2021/08/01 08:51:03;;;;;;;22.27;16.80;;;;;;;;;;5013016;28;20197;-69
2021/08/01 08:53:29;;;;;;;18.52;16.60;;;;;;;;;;5003881;28;20652;-68
2021/08/01 08:55:55;;;;;;;23.70;15.50;;;;;;;;;;5014877;28;20182;-68
2021/08/01 08:58:25;;;;;;;20.02;16.73;;;;;;;;;;5006149;28;20670;-69
2021/08/01 09:00:52;;;;;;;19.65;17.15;;;;;;;;;;5014495;28;20232;-69
2021/08/01 09:03:18;;;;;;;24.00;17.50;;;;;;;;;;5007152;28;20426;-68
2021/08/01 09:05:43;;;;;;;20.70;15.80;;;;;;;;;;5018449;28;20295;-68
2021/08/01 09:08:08;;;;;;;19.65;15.68;;;;;;;;;;5005952;28;20197;-69
2021/08/01 09:10:34;;;;;;;19.20;14.27;;;;;;;;;;5017420;28;20194;-68
2021/08/01 09:12:59;;;;;;;19.27;14.35;;;;;;;;;;5008172;28;20209;-69
2021/08/01 09:15:28;;;;;;;24.00;14.13;;;;;;;;;;5015960;28;20190;-69
2021/08/01 09:17:55;;;;;;;16.55;13.15;;;;;;;;;;5017336;28;20186;-69
2021/08/01 09:20:30;;;;;;;18.05;15.65;;;;;;;;;;5007833;28;20540;-68
2021/08/01 09:23:01;;;;;;;24.25;16.55;;;;;;;;;;5019647;28;20205;-68
2021/08/01 09:25:31;;;;;;;21.05;16.42;;;;;;;;;;5011211;28;21243;-69
2021/08/01 09:28:06;;;;;;;23.08;17.17;;;;;;;;;;5019270;28;20844;-68
2021/08/01 09:31:07;;;;;;;25.00;17.25;;;;;;;;;;5010344;28;20699;-68
2021/08/01 09:33:44;;;;;;;25.27;17.20;;;;;;;;;;4996639;28;20287;-69
2021/08/01 09:36:15;;;;;;;25.67;17.27;;;;;;;;;;5007590;28;20208;-70
2021/08/01 09:38:49;;;;;;;21.25;16.90;;;;;;;;;;5014752;28;20197;-69
2021/08/01 09:41:36;;;;;;;23.23;16.60;;;;;;;;;;5007860;28;20672;-69
2021/08/01 09:44:04;;;;;;;22.45;16.48;;;;;;;;;;5012832;28;20208;-70
2021/08/01 09:46:37;;;;;;;21.88;16.23;;;;;;;;;;5010507;28;20244;-70
2021/08/01 09:49:19;;;;;;;21.00;16.70;;;;;;;;;;5016229;28;20918;-69
2021/08/01 09:51:45;;;;;;;24.23;17.10;;;;;;;;;;5006590;28;20697;-69
2021/08/01 09:54:11;;;;;;;25.23;18.52;;;;;;;;;;5018074;28;20312;-69
2021/08/01 09:56:38;;;;;;;25.65;18.50;;;;;;;;;;5012790;28;20207;-69
2021/08/01 09:59:06;;;;;;;28.58;19.08;;;;;;;;;;5016489;28;20233;-68
2021/08/01 10:01:47;;;;;;;27.20;19.48;;;;;;;;;;5009584;28;20580;-68
2021/08/01 10:04:22;;;;;;;29.63;21.15;;;;;;;;;;5015398;28;20177;-68
2021/08/01 10:07:01;;;;;;;28.65;20.98;;;;;;;;;;5007430;28;20217;-68
2021/08/01 10:09:27;;;;;;;28.27;21.20;;;;;;;;;;5017237;28;20265;-68
2021/08/01 10:11:53;;;;;;;30.13;21.27;;;;;;;;;;5011310;28;20316;-67
2021/08/01 10:14:19;;;;;;;32.08;21.58;;;;;;;;;;5015808;28;20636;-69
2021/08/01 10:16:44;;;;;;;35.45;23.63;;;;;;;;;;5009391;28;20190;-68
2021/08/01 10:19:09;;;;;;;30.48;22.38;;;;;;;;;;5017426;28;20258;-69
2021/08/01 10:21:35;;;;;;;29.42;21.13;;;;;;;;;;5010601;28;20196;-68
2021/08/01 10:24:03;;;;;;;35.90;23.13;;;;;;;;;;5017347;28;20197;-69
2021/08/01 10:26:36;;;;;;;28.73;20.52;;;;;;;;;;5013595;28;20232;-69
2021/08/01 10:29:06;;;;;;;30.95;20.83;;;;;;;;;;5008406;28;20591;-69
2021/08/01 10:31:35;;;;;;;28.33;20.88;;;;;;;;;;5017703;28;20194;-69
2021/08/01 10:34:15;;;;;;;29.50;20.08;;;;;;;;;;5007832;28;20287;-68
2021/08/01 10:36:47;;;;;;;30.50;20.52;;;;;;;;;;5016295;28;20634;-68
2021/08/01 10:39:14;;;;;;;25.92;17.77;;;;;;;;;;5012288;28;20512;-69
2021/08/01 10:41:40;;;;;;;30.58;19.63;;;;;;;;;;5016578;28;20189;-68
2021/08/01 10:44:10;;;;;;;24.48;17.85;;;;;;;;;;5007736;28;20186;-67
2021/08/01 10:46:38;;;;;;;30.45;20.52;;;;;;;;;;5015972;28;20182;-68
2021/08/01 10:49:05;;;;;;;26.65;19.40;;;;;;;;;;5007215;28;20209;-69
2021/08/01 10:51:32;;;;;;;29.02;18.38;;;;;;;;;;5015525;28;20587;-69
2021/08/01 10:54:20;;;;;;;29.15;19.90;;;;;;;;;;5008087;28;20210;-69
2021/08/01 10:56:47;;;;;;;26.58;18.38;;;;;;;;;;5015574;28;20194;-68
2021/08/01 10:59:43;;;;;;;28.52;19.85;;;;;;;;;;5009891;28;20234;-70
2021/08/01 11:02:16;;;;;;;26.25;19.02;;;;;;;;;;5016421;28;20197;-68
2021/08/01 11:04:46;;;;;;;27.98;19.65;;;;;;;;;;5007907;28;20240;-68
2021/08/01 11:07:31;;;;;;;28.40;19.40;;;;;;;;;;5012245;28;20204;-69
2021/08/01 11:10:15;;;;;;;31.38;20.85;;;;;;;;;;5008818;28;20684;-68
2021/08/01 11:12:41;;;;;;;29.75;19.77;;;;;;;;;;5014290;28;20194;-68
2021/08/01 11:15:11;;;;;;;26.67;18.67;;;;;;;;;;5008877;28;20192;-68
2021/08/01 11:17:43;;;;;;;30.48;20.17;;;;;;;;;;5013780;28;20194;-67
2021/08/01 11:20:23;;;;;;;27.95;18.67;;;;;;;;;;5007815;28;20228;-68
2021/08/01 11:22:49;;;;;;;29.50;18.77;;;;;;;;;;5013586;28;20240;-68
2021/08/01 11:25:23;;;;;;;7.93;5.78;;;;;;;;;;5006827;28;20201;-69
2021/08/01 11:28:07;;;;;;;3.05;2.40;;;;;;;;;;5010476;28;20198;-68
2021/08/01 11:30:53;;;;;;;3.58;1.70;;;;;;;;;;5005491;28;20251;-69
2021/08/01 11:33:44;;;;;;;3.75;1.80;;;;;;;;;;5011225;28;21622;-70
2021/08/01 11:36:12;;;;;;;2.22;1.60;;;;;;;;;;4995452;28;20200;-70
2021/08/01 11:38:40;;;;;;;1.15;0.98;;;;;;;;;;5004399;28;20194;-68
2021/08/01 11:41:06;;;;;;;0.70;0.68;;;;;;;;;;5003828;28;20666;-73
2021/08/01 11:43:32;;;;;;;1.02;0.60;;;;;;;;;;5011503;28;20186;-68
2021/08/01 11:46:03;;;;;;;0.80;0.60;;;;;;;;;;5012428;28;20198;-71
2021/08/01 11:48:29;;;;;;;1.63;0.80;;;;;;;;;;5011215;28;20204;-68
2021/08/01 11:50:57;;;;;;;1.00;0.90;;;;;;;;;;5017633;28;20625;-73
2021/08/01 11:53:24;;;;;;;1.10;0.60;;;;;;;;;;5007399;28;20741;-71
2021/08/01 11:55:51;;;;;;;0.90;0.73;;;;;;;;;;5016047;28;20186;-72
2021/08/01 11:58:17;;;;;;;0.85;0.73;;;;;;;;;;5005431;28;20241;-72
2021/08/01 12:00:42;;;;;;;1.15;0.60;;;;;;;;;;5014203;28;20672;-70
2021/08/01 12:03:09;;;;;;;1.48;0.70;;;;;;;;;;5005995;28;20267;-71
2021/08/01 12:05:49;;;;;;;1.38;0.80;;;;;;;;;;5014150;28;20644;-71
2021/08/01 12:08:35;;;;;;;1.10;1.00;;;;;;;;;;5004403;28;20194;-72
2021/08/01 12:11:17;;;;;;;1.83;1.27;;;;;;;;;;5015968;28;20190;-71
2021/08/01 12:14:04;;;;;;;3.20;1.00;;;;;;;;;;5010192;28;20217;-71
2021/08/01 12:16:29;;;;;;;0.98;0.90;;;;;;;;;;5012776;28;20190;-71
2021/08/01 12:19:18;;;;;;;3.58;1.20;;;;;;;;;;5009635;28;20304;-71
2021/08/01 12:21:43;;;;;;;1.85;1.10;;;;;;;;;;5015868;28;20748;-70
2021/08/01 12:24:35;;;;;;;1.70;0.90;;;;;;;;;;5004827;28;20182;-71
2021/08/01 12:27:21;;;;;;;2.40;1.05;;;;;;;;;;5014135;28;20324;-72
2021/08/01 12:30:20;;;;;;;0.63;0.63;;;;;;;;;;5013495;28;20214;-72
2021/08/01 12:32:53;;;;;;;0.77;0.77;;;;;;;;;;5033933;28;20198;-72
2021/08/01 12:35:27;;;;;;;1.70;1.00;;;;;;;;;;5016096;28;20190;-72
2021/08/01 12:38:02;;;;;;;1.42;1.00;;;;;;;;;;5013200;28;20183;-72
2021/08/01 12:40:36;;;;;;;0.80;0.80;;;;;;;;;;5018433;28;20225;-71
2021/08/01 12:43:05;;;;;;;1.60;0.90;;;;;;;;;;5021921;28;20233;-71
2021/08/01 12:45:33;;;;;;;0.90;0.90;;;;;;;;;;5014592;28;20213;-71
2021/08/01 12:47:59;;;;;;;1.00;0.90;;;;;;;;;;5020627;28;20170;-71
2021/08/01 12:50:25;;;;;;;1.13;1.02;;;;;;;;;;5020999;28;20532;-71
2021/08/01 12:52:51;;;;;;;1.25;0.88;;;;;;;;;;5020008;28;20194;-71
2021/08/01 12:55:17;;;;;;;2.33;1.10;;;;;;;;;;5016025;28;20194;-71
2021/08/01 12:58:05;;;;;;;1.10;1.00;;;;;;;;;;5021394;28;20238;-71
2021/08/01 13:00:32;;;;;;;2.50;1.00;;;;;;;;;;5003645;28;20213;-71
2021/08/01 13:02:59;;;;;;;1.33;1.23;;;;;;;;;;5018358;28;20333;-72
2021/08/01 13:05:27;;;;;;;1.42;1.10;;;;;;;;;;5010585;28;20784;-72
2021/08/01 13:07:54;;;;;;;1.40;1.30;;;;;;;;;;5022601;28;20205;-72
2021/08/01 13:10:19;;;;;;;1.30;1.20;;;;;;;;;;5020017;28;20672;-72
2021/08/01 13:13:11;;;;;;;2.70;1.13;;;;;;;;;;5011600;28;20182;-69
2021/08/01 13:15:53;;;;;;;1.30;0.88;;;;;;;;;;5017577;28;20194;-69
2021/08/01 13:18:27;;;;;;;0.93;0.70;;;;;;;;;;5019423;28;20186;-71
2021/08/01 13:20:53;;;;;;;0.60;0.60;;;;;;;;;;5017981;28;20544;-71
2021/08/01 13:23:35;;;;;;;1.05;0.95;;;;;;;;;;5010728;28;20213;-71
2021/08/01 13:26:22;;;;;;;1.27;1.00;;;;;;;;;;5018032;28;20194;-71
2021/08/01 13:28:50;;;;;;;0.95;0.95;;;;;;;;;;5020083;28;20178;-71
2021/08/01 13:31:21;;;;;;;1.60;1.35;;;;;;;;;;5019149;28;20721;-70
2021/08/01 13:33:58;;;;;;;1.67;1.23;;;;;;;;;;5014024;28;20219;-71
2021/08/01 13:36:43;;;;;;;1.60;1.50;;;;;;;;;;5013197;28;20669;-70
2021/08/01 13:39:10;;;;;;;1.45;1.35;;;;;;;;;;5014793;28;20186;-69
2021/08/01 13:41:39;;;;;;;1.50;1.40;;;;;;;;;;5023998;28;20197;-68
2021/08/01 13:44:15;;;;;;;1.08;1.00;;;;;;;;;;5030045;28;20225;-69
2021/08/01 13:46:42;;;;;;;1.88;1.77;;;;;;;;;;5016852;28;20641;-69
2021/08/01 13:49:07;;;;;;;1.52;1.40;;;;;;;;;;5015143;28;20564;-69
2021/08/01 13:51:33;;;;;;;1.33;1.23;;;;;;;;;;5021767;28;20190;-69
2021/08/01 13:54:01;;;;;;;1.58;1.48;;;;;;;;;;5017238;28;20230;-69
2021/08/01 13:56:28;;;;;;;2.38;1.77;;;;;;;;;;5021204;28;20550;-70
2021/08/01 13:58:57;;;;;;;1.70;1.60;;;;;;;;;;5015192;28;20777;-69
2021/08/01 14:01:23;;;;;;;1.77;1.67;;;;;;;;;;5020174;28;20612;-69
2021/08/01 14:03:49;;;;;;;2.08;1.88;;;;;;;;;;5018904;28;20725;-69
2021/08/01 14:06:15;;;;;;;2.13;1.80;;;;;;;;;;5021977;28;20186;-68
2021/08/01 14:08:40;;;;;;;2.25;2.05;;;;;;;;;;5012051;28;20208;-67
2021/08/01 14:11:05;;;;;;;2.10;1.90;;;;;;;;;;5013267;28;20616;-68
2021/08/01 14:13:30;;;;;;;3.10;2.40;;;;;;;;;;5021843;28;20210;-68
2021/08/01 14:15:57;;;;;;;3.05;2.20;;;;;;;;;;5009550;28;20189;-68
2021/08/01 14:18:23;;;;;;;2.00;1.90;;;;;;;;;;5018862;28;20186;-67
2021/08/01 14:20:48;;;;;;;2.35;2.20;;;;;;;;;;5014399;28;20197;-68
2021/08/01 14:23:14;;;;;;;2.75;2.35;;;;;;;;;;5021733;28;20166;-68
2021/08/01 14:25:41;;;;;;;2.50;2.30;;;;;;;;;;5016178;28;20204;-67
2021/08/01 14:28:07;;;;;;;2.63;2.42;;;;;;;;;;5019289;28;20364;-68
2021/08/01 14:30:32;;;;;;;2.63;2.42;;;;;;;;;;5012313;28;20659;-68
2021/08/01 14:32:59;;;;;;;3.47;2.95;;;;;;;;;;5022676;28;20178;-69
2021/08/01 14:35:25;;;;;;;3.10;2.80;;;;;;;;;;5011137;28;20557;-68